Time;durP1;ratioP1;P1;durP2;ratioP2;P2;SDS_P1;SDS_P2;PMS_P1;PMS_P2;Temp;Humidity;BMP_temperature;BMP_pressure;BME280_temperature;BME280_humidity;BME280_pressure;Samples;Min_cycle;Max_cycle;Signal;HPM_P1;HPM_P2
2021/06/10 00:02:18;;;;;;;8.20;7.53;;;;;;;19.61;62.97;99646.34;4997758;28;20312;-81
2021/06/10 00:04:45;;;;;;;7.93;7.20;;;;;;;19.64;62.54;99643.09;4998381;28;20229;-80
2021/06/10 00:07:13;;;;;;;8.00;7.40;;;;;;;19.69;63.01;99660.16;4982159;28;20284;-80
2021/06/10 00:09:40;;;;;;;7.57;6.97;;;;;;;19.65;63.59;99658.28;4982102;28;20256;-82
2021/06/10 00:12:08;;;;;;;7.80;7.10;;;;;;;19.58;63.22;99653.16;4997401;28;20307;-81
2021/06/10 00:14:35;;;;;;;8.23;7.50;;;;;;;19.57;62.72;99653.44;4981901;28;20228;-81
2021/06/10 00:17:02;;;;;;;7.97;7.17;;;;;;;19.58;62.61;99645.00;4998037;28;20237;-83
2021/06/10 00:19:28;;;;;;;7.83;7.07;;;;;;;19.61;62.29;99643.63;4998148;28;20232;-82
2021/06/10 00:21:55;;;;;;;8.13;7.43;;;;;;;19.68;62.66;99655.03;4998017;28;20225;-81
2021/06/10 00:24:22;;;;;;;8.20;7.50;;;;;;;19.68;62.41;99657.75;4997357;28;20271;-80
2021/06/10 00:26:49;;;;;;;7.80;7.20;;;;;;;19.74;61.91;99652.00;4981617;28;20236;-80
2021/06/10 00:29:16;;;;;;;8.50;7.60;;;;;;;19.71;62.30;99646.31;4998155;28;20286;-80
2021/06/10 00:31:42;;;;;;;7.97;7.17;;;;;;;19.69;62.50;99659.38;5015252;28;20698;-79
2021/06/10 00:34:09;;;;;;;8.67;7.83;;;;;;;19.84;61.85;99659.28;4997514;28;20232;-83
2021/06/10 00:36:36;;;;;;;8.53;7.83;;;;;;;19.98;61.10;99656.75;4997937;28;20294;-80
2021/06/10 00:39:03;;;;;;;7.90;7.33;;;;;;;19.95;61.00;99652.72;4981796;28;20573;-79
2021/06/10 00:41:35;;;;;;;8.10;7.43;;;;;;;19.88;61.46;99648.66;4997866;28;20230;-82
2021/06/10 00:44:05;;;;;;;7.83;7.23;;;;;;;19.90;61.51;99654.63;4981334;28;20235;-80
2021/06/10 00:46:32;;;;;;;7.57;6.97;;;;;;;19.89;61.21;99661.16;4997976;28;20629;-83
2021/06/10 00:49:00;;;;;;;7.50;6.90;;;;;;;19.88;61.88;99654.09;4998090;28;20340;-81
2021/06/10 00:51:26;;;;;;;7.90;7.13;;;;;;;19.83;61.98;99659.59;4997729;28;20324;-79
2021/06/10 00:53:54;;;;;;;9.70;6.97;;;;;;;19.78;62.35;99661.22;5001694;28;20227;-81
2021/06/10 00:56:20;;;;;;;8.30;7.43;;;;;;;19.75;62.74;99655.53;5018467;28;20721;-80
2021/06/10 00:58:47;;;;;;;8.43;7.73;;;;;;;19.69;63.33;99662.09;4985466;28;20248;-82
2021/06/10 01:01:15;;;;;;;7.90;7.30;;;;;;;19.61;63.99;99662.66;5001740;28;20237;-79
2021/06/10 01:03:41;;;;;;;7.57;6.87;;;;;;;19.50;64.51;99667.31;5001582;28;20277;-82
2021/06/10 01:06:23;;;;;;;8.03;7.43;;;;;;;19.50;64.52;99666.50;4985053;28;20287;-82
2021/06/10 01:08:56;;;;;;;8.00;7.40;;;;;;;19.50;64.64;99670.03;5001537;28;20647;-81
2021/06/10 01:11:46;;;;;;;7.67;6.97;;;;;;;19.40;64.60;99661.06;5001651;28;20256;-81
2021/06/10 01:14:21;;;;;;;7.73;7.13;;;;;;;19.39;64.21;99670.31;5001076;28;20319;-80
2021/06/10 01:16:48;;;;;;;7.83;7.13;;;;;;;19.25;65.04;99673.59;5001467;28;20245;-80
2021/06/10 01:19:19;;;;;;;7.63;6.80;;;;;;;19.25;65.78;99668.19;5001328;28;20700;-80
2021/06/10 01:21:46;;;;;;;7.50;6.83;;;;;;;19.18;65.82;99669.53;4985085;28;20574;-80
2021/06/10 01:24:28;;;;;;;8.60;7.20;;;;;;;19.15;65.57;99662.75;5000764;28;20250;-82
2021/06/10 01:27:03;;;;;;;8.43;7.20;;;;;;;19.05;66.92;99661.94;4985035;28;20233;-83
2021/06/10 01:29:30;;;;;;;7.53;6.93;;;;;;;18.93;67.38;99656.81;5001003;28;20236;-79
2021/06/10 01:31:56;;;;;;;7.60;7.10;;;;;;;18.86;68.36;99654.38;5000941;28;20267;-80
2021/06/10 01:34:24;;;;;;;8.00;7.40;;;;;;;18.85;69.13;99658.16;5000680;28;20282;-83
2021/06/10 01:36:54;;;;;;;8.03;7.37;;;;;;;18.81;69.46;99648.13;4984769;28;20224;-83
2021/06/10 01:39:24;;;;;;;7.90;7.20;;;;;;;18.81;70.14;99653.56;5001367;28;20314;-83
2021/06/10 01:41:51;;;;;;;8.30;7.60;;;;;;;18.71;71.00;99648.94;4984848;28;20238;-83
2021/06/10 01:44:18;;;;;;;8.57;7.87;;;;;;;18.70;71.03;99638.41;4984423;28;20240;-80
2021/06/10 01:46:45;;;;;;;8.80;8.00;;;;;;;18.67;71.44;99650.59;4984666;28;20227;-78
2021/06/10 01:49:15;;;;;;;9.13;8.43;;;;;;;18.62;71.88;99645.16;4984722;28;20246;-83
2021/06/10 01:51:43;;;;;;;8.77;7.93;;;;;;;18.58;71.97;99641.38;5001283;28;20582;-83
2021/06/10 01:54:10;;;;;;;9.47;8.70;;;;;;;18.59;72.05;99653.84;5000348;28;20243;-82
2021/06/10 01:56:40;;;;;;;9.57;8.63;;;;;;;18.52;71.52;99639.72;5000607;28;20665;-80
2021/06/10 01:59:08;;;;;;;9.10;8.30;;;;;;;18.48;71.93;99641.31;5000462;28;20253;-79
2021/06/10 02:01:35;;;;;;;8.40;7.70;;;;;;;18.54;71.42;99648.41;5000660;28;20277;-84
2021/06/10 02:04:02;;;;;;;8.97;8.10;;;;;;;18.50;71.93;99631.03;4998802;28;20227;-83
2021/06/10 02:06:32;;;;;;;8.73;8.03;;;;;;;18.52;71.71;99649.75;4984022;28;20248;-80
2021/06/10 02:08:59;;;;;;;8.93;8.23;;;;;;;18.46;71.61;99638.91;5000279;28;20560;-82
2021/06/10 02:11:26;;;;;;;9.53;8.73;;;;;;;18.39;71.79;99645.66;5000757;28;20215;-81
2021/06/10 02:13:53;;;;;;;9.20;8.40;;;;;;;18.36;72.02;99636.19;4984183;28;20240;-80
2021/06/10 02:16:21;;;;;;;9.57;8.83;;;;;;;18.45;71.19;99639.16;4983417;28;20289;-82
2021/06/10 02:18:49;;;;;;;9.43;8.57;;;;;;;18.45;71.14;99639.16;5000375;28;20231;-81
2021/06/10 02:21:16;;;;;;;9.03;8.23;;;;;;;18.41;71.40;99638.09;5000257;28;20233;-81
2021/06/10 02:23:44;;;;;;;9.63;8.83;;;;;;;18.38;71.87;99639.41;5000025;28;20250;-80
2021/06/10 02:26:12;;;;;;;10.23;9.43;;;;;;;18.39;72.12;99638.34;4983429;28;20309;-80
2021/06/10 02:28:39;;;;;;;11.60;10.60;;;;;;;18.39;72.70;99640.25;4983828;28;20223;-81
2021/06/10 02:31:08;;;;;;;10.57;9.57;;;;;;;18.38;72.50;99627.78;4983547;28;20556;-81
2021/06/10 02:33:37;;;;;;;10.50;9.50;;;;;;;18.45;72.38;99634.56;4983732;28;20262;-84
2021/06/10 02:36:07;;;;;;;10.90;10.00;;;;;;;18.40;72.56;99631.03;4983710;28;20575;-82
2021/06/10 02:38:33;;;;;;;10.70;9.63;;;;;;;18.39;72.64;99635.63;4983688;28;20314;-80
2021/06/10 02:41:01;;;;;;;10.00;9.20;;;;;;;18.43;72.03;99619.63;4967723;28;20231;-79
2021/06/10 02:43:30;;;;;;;10.63;9.80;;;;;;;18.46;71.79;99635.38;4983729;28;20236;-82
2021/06/10 02:45:58;;;;;;;9.90;9.10;;;;;;;18.37;71.65;99616.13;4983903;28;20315;-81
2021/06/10 02:48:28;;;;;;;10.33;9.50;;;;;;;18.37;71.21;99609.88;4983033;28;20223;-82
2021/06/10 02:50:55;;;;;;;9.27;8.47;;;;;;;18.49;71.17;99630.22;4983637;28;20704;-84
2021/06/10 02:53:22;;;;;;;9.83;9.10;;;;;;;18.51;71.04;99629.94;4999878;28;20654;-82
2021/06/10 02:55:49;;;;;;;9.40;8.63;;;;;;;18.51;70.94;99640.00;4983556;28;20298;-81
2021/06/10 02:58:18;;;;;;;8.63;8.03;;;;;;;18.51;70.69;99629.13;5015381;28;20282;-83
2021/06/10 03:00:45;;;;;;;9.17;8.37;;;;;;;18.52;70.47;99631.59;4983182;28;20631;-82
2021/06/10 03:03:13;;;;;;;9.20;8.40;;;;;;;18.71;69.80;99632.66;4999507;28;20222;-81
2021/06/10 03:05:42;;;;;;;9.53;8.73;;;;;;;18.68;69.30;99629.69;4999181;28;20231;-82
2021/06/10 03:08:17;;;;;;;9.60;7.87;;;;;;;18.69;68.80;99628.63;4966765;28;20258;-83
2021/06/10 03:10:45;;;;;;;7.87;7.17;;;;;;;18.80;67.90;99641.88;4982904;28;20581;-80
2021/06/10 03:13:16;;;;;;;7.83;7.07;;;;;;;18.76;67.09;99629.13;4999057;28;20242;-83
2021/06/10 03:15:44;;;;;;;6.73;6.23;;;;;;;18.70;66.49;99622.94;4982685;28;20249;-81
2021/06/10 03:18:12;;;;;;;6.50;6.00;;;;;;;18.81;65.63;99621.00;4999065;28;20568;-79
2021/06/10 03:20:39;;;;;;;6.17;5.67;;;;;;;18.79;65.29;99626.72;4982907;28;20310;-80
2021/06/10 03:23:06;;;;;;;6.50;6.00;;;;;;;19.02;64.76;99640.78;4999085;28;20327;-82
2021/06/10 03:25:34;;;;;;;6.43;5.93;;;;;;;18.89;65.27;99640.28;4966642;28;20235;-79
2021/06/10 03:28:02;;;;;;;6.50;6.00;;;;;;;18.91;65.11;99629.13;4982782;28;20710;-83
2021/06/10 03:30:28;;;;;;;6.77;6.27;;;;;;;19.02;65.05;99640.78;4982730;28;20294;-79
2021/06/10 03:32:56;;;;;;;6.97;6.37;;;;;;;19.11;65.21;99641.84;4998967;28;20235;-83
2021/06/10 03:35:23;;;;;;;6.60;5.93;;;;;;;19.21;64.83;99647.28;4998797;28;20230;-83
2021/06/10 03:37:50;;;;;;;7.03;6.43;;;;;;;19.33;64.80;99643.16;4999013;28;20297;-82
2021/06/10 03:40:18;;;;;;;7.00;6.40;;;;;;;19.44;64.95;99654.03;4998196;28;20233;-81
2021/06/10 03:42:45;;;;;;;7.53;6.93;;;;;;;19.48;64.91;99638.78;4998837;28;20230;-79
2021/06/10 03:45:14;;;;;;;7.70;7.17;;;;;;;19.57;65.50;99653.44;4998642;28;20227;-80
2021/06/10 03:47:43;;;;;;;8.73;7.93;;;;;;;19.63;65.95;99655.88;4982567;28;20230;-81
2021/06/10 03:50:10;;;;;;;8.13;7.53;;;;;;;19.72;66.22;99654.19;4998069;28;20330;-81
2021/06/10 03:52:38;;;;;;;10.07;8.50;;;;;;;19.69;66.38;99649.28;4989128;28;20230;-80
2021/06/10 03:55:07;;;;;;;8.83;8.17;;;;;;;19.85;66.45;99657.38;4997434;28;20227;-82
2021/06/10 03:57:36;;;;;;;9.10;8.30;;;;;;;19.99;66.05;99653.78;4981741;28;20239;-81
2021/06/10 04:00:05;;;;;;;9.57;8.60;;;;;;;20.24;65.41;99655.53;4997795;28;20259;-83
2021/06/10 04:02:35;;;;;;;9.17;8.47;;;;;;;20.97;62.67;99656.31;4982920;28;20252;-80
2021/06/10 04:05:03;;;;;;;9.30;8.43;;;;;;;21.14;62.29;99657.84;4981616;28;20224;-84
2021/06/10 04:07:30;;;;;;;9.23;8.50;;;;;;;21.01;62.49;99651.94;4981575;28;20229;-79
2021/06/10 04:09:56;;;;;;;8.93;8.23;;;;;;;20.92;62.42;99650.09;4998077;28;20316;-83
2021/06/10 04:12:23;;;;;;;8.93;8.07;;;;;;;20.77;62.65;99658.41;4997366;28;20588;-80
2021/06/10 04:14:50;;;;;;;9.40;8.50;;;;;;;21.06;62.26;99659.22;4997803;28;20291;-79
2021/06/10 04:17:17;;;;;;;9.10;8.30;;;;;;;21.60;60.08;99675.31;4981907;28;20234;-81
2021/06/10 04:19:43;;;;;;;8.80;8.10;;;;;;;21.99;59.04;99666.94;4997485;28;20678;-83
2021/06/10 04:22:10;;;;;;;8.90;8.20;;;;;;;22.57;56.35;99661.97;4981015;28;20554;-80
2021/06/10 04:24:37;;;;;;;8.63;7.93;;;;;;;23.30;54.64;99669.47;4997538;28;20590;-82
2021/06/10 04:27:05;;;;;;;8.13;7.50;;;;;;;24.07;51.92;99672.31;4997043;28;20230;-80
2021/06/10 04:29:32;;;;;;;8.27;7.60;;;;;;;24.77;49.88;99752.06;4997727;28;20318;-81
2021/06/10 04:31:59;;;;;;;9.43;8.23;;;;;;;25.31;47.79;99777.59;4997989;28;20233;-82
2021/06/10 04:34:26;;;;;;;8.43;7.80;;;;;;;25.85;46.54;99746.25;4996915;28;20692;-83
2021/06/10 04:36:53;;;;;;;8.25;7.50;;;;;;;25.52;47.38;99679.16;4980847;28;20283;-82
2021/06/10 04:39:20;;;;;;;8.18;7.40;;;;;;;24.68;49.54;99676.41;4997682;28;20230;-79
2021/06/10 04:41:46;;;;;;;8.73;8.05;;;;;;;23.91;51.24;99669.09;4981594;28;20234;-82
2021/06/10 04:44:13;;;;;;;9.30;8.15;;;;;;;23.41;52.57;99681.84;4996943;28;20250;-82
2021/06/10 04:46:40;;;;;;;8.80;8.10;;;;;;;23.07;53.10;99667.72;4997419;28;20241;-79
2021/06/10 04:49:07;;;;;;;8.15;7.45;;;;;;;22.86;54.06;99678.19;4997566;28;20328;-82
2021/06/10 04:51:34;;;;;;;8.63;7.78;;;;;;;22.77;54.79;99682.69;4981563;28;20531;-80
2021/06/10 04:54:00;;;;;;;9.00;8.20;;;;;;;22.48;55.27;99669.22;4996105;28;20233;-82
2021/06/10 04:56:27;;;;;;;8.45;7.75;;;;;;;22.48;55.24;99679.34;4980974;28;20224;-79
2021/06/10 04:58:54;;;;;;;8.32;7.63;;;;;;;22.08;56.02;99665.16;4997437;28;20228;-79
2021/06/10 05:01:23;;;;;;;8.87;8.17;;;;;;;22.19;56.18;99665.84;4997089;28;20246;-79
2021/06/10 05:03:50;;;;;;;8.60;8.00;;;;;;;22.19;55.76;99669.38;4997707;28;20233;-81
2021/06/10 05:06:17;;;;;;;8.47;7.77;;;;;;;22.22;55.45;99665.22;4996780;28;20286;-82
2021/06/10 05:08:43;;;;;;;7.97;7.30;;;;;;;22.25;55.82;99670.13;4981161;28;20249;-80
2021/06/10 05:11:10;;;;;;;8.40;7.60;;;;;;;22.16;55.18;99644.59;4980989;28;20231;-80
2021/06/10 05:13:38;;;;;;;8.47;7.70;;;;;;;22.38;55.54;99670.19;4980870;28;20242;-82
2021/06/10 05:16:04;;;;;;;8.17;7.47;;;;;;;22.39;54.93;99662.81;4996873;28;20238;-81
2021/06/10 05:18:31;;;;;;;8.03;7.23;;;;;;;22.46;54.41;99668.69;4981143;28;20251;-80
2021/06/10 05:20:58;;;;;;;8.10;7.50;;;;;;;22.34;54.89;99652.78;4980779;28;20240;-79
2021/06/10 05:23:25;;;;;;;7.93;7.17;;;;;;;22.46;54.63;99665.97;4997030;28;20283;-80
2021/06/10 05:25:52;;;;;;;7.93;7.30;;;;;;;22.51;54.57;99674.09;4977873;28;20549;-81
2021/06/10 05:28:19;;;;;;;8.10;7.40;;;;;;;22.45;54.68;99672.53;4993273;28;20234;-79
2021/06/10 05:30:46;;;;;;;7.83;7.23;;;;;;;22.51;53.89;99670.53;4977837;28;20515;-80
2021/06/10 05:33:13;;;;;;;7.87;7.27;;;;;;;22.52;54.07;99672.16;4993676;28;20223;-80
2021/06/10 05:35:40;;;;;;;7.18;6.57;;;;;;;22.61;53.71;99679.38;4993712;28;20686;-79
2021/06/10 05:38:06;;;;;;;8.10;7.40;;;;;;;22.64;53.43;99676.06;4993843;28;20256;-83
2021/06/10 05:40:33;;;;;;;7.60;6.90;;;;;;;22.97;52.74;99684.28;4997289;28;20235;-82
2021/06/10 05:43:02;;;;;;;7.30;6.67;;;;;;;22.80;53.26;99679.38;4981124;28;20232;-82
2021/06/10 05:45:29;;;;;;;7.57;6.88;;;;;;;22.98;53.16;99685.91;4964995;28;20232;-82
2021/06/10 05:47:55;;;;;;;8.13;6.63;;;;;;;23.01;53.11;99683.38;4980806;28;20661;-79
2021/06/10 05:50:22;;;;;;;6.83;6.23;;;;;;;23.17;52.27;99689.41;4980536;28;20258;-81
2021/06/10 05:52:49;;;;;;;5.18;4.78;;;;;;;23.28;47.87;99683.44;4997127;28;20231;-80
2021/06/10 05:55:15;;;;;;;5.38;4.85;;;;;;;23.14;47.76;99688.06;4996871;28;20437;-79
2021/06/10 05:57:42;;;;;;;6.43;5.35;;;;;;;23.22;46.91;99681.09;4996817;28;20236;-81
2021/06/10 06:00:09;;;;;;;5.93;5.32;;;;;;;23.32;47.82;99688.31;4980416;28;20245;-79
2021/06/10 06:02:39;;;;;;;5.78;5.22;;;;;;;23.42;48.09;99685.38;4981012;28;20223;-82
2021/06/10 06:05:07;;;;;;;5.00;4.60;;;;;;;23.40;47.75;99673.94;4997595;28;20243;-79
2021/06/10 06:07:34;;;;;;;5.40;5.00;;;;;;;23.63;47.60;99681.16;4980441;28;20227;-82
2021/06/10 06:10:03;;;;;;;5.75;5.25;;;;;;;23.48;47.06;99679.53;4980292;28;20235;-81
2021/06/10 06:12:31;;;;;;;5.70;5.28;;;;;;;23.41;48.22;99687.31;4980697;28;20231;-83
2021/06/10 06:14:58;;;;;;;7.68;4.80;;;;;;;23.44;46.76;99673.06;4996455;28;20232;-82
2021/06/10 06:17:24;;;;;;;5.05;4.55;;;;;;;23.57;45.54;99685.09;4996010;28;20570;-82
2021/06/10 06:19:52;;;;;;;4.95;4.43;;;;;;;23.51;45.29;99678.94;4977174;28;20671;-80
2021/06/10 06:22:18;;;;;;;5.05;4.25;;;;;;;23.68;44.53;99692.00;4994465;28;20251;-80
2021/06/10 06:24:45;;;;;;;4.55;4.15;;;;;;;23.76;43.60;99685.00;4998164;28;20277;-83
2021/06/10 06:27:12;;;;;;;5.38;4.40;;;;;;;23.73;43.86;99682.88;4982992;28;20305;-84
2021/06/10 06:29:40;;;;;;;4.78;4.25;;;;;;;23.78;42.58;99685.50;4983326;28;20226;-89
2021/06/10 06:32:07;;;;;;;5.37;4.83;;;;;;;23.61;44.12;99683.38;4982818;28;20234;-89
2021/06/10 06:34:34;;;;;;;5.20;4.80;;;;;;;23.66;43.60;99684.09;4999464;28;20277;-91
2021/06/10 06:37:01;;;;;;;5.50;4.95;;;;;;;23.55;44.90;99681.88;4998920;28;20237;-90
2021/06/10 06:39:27;;;;;;;6.88;4.40;;;;;;;23.72;45.04;99690.28;4998705;28;20231;-85
2021/06/10 06:41:54;;;;;;;5.05;4.65;;;;;;;23.82;44.14;99684.59;4998971;28;20339;-84
2021/06/10 06:44:21;;;;;;;5.00;4.50;;;;;;;23.96;43.74;99690.06;4998287;28;20361;-87
2021/06/10 06:46:47;;;;;;;4.78;4.35;;;;;;;23.88;43.33;99693.50;4999783;28;20291;-90
2021/06/10 06:49:14;;;;;;;3.45;3.13;;;;;;;24.13;39.55;99687.47;4999342;28;20300;-88
2021/06/10 06:51:41;;;;;;;5.28;3.42;;;;;;;24.06;38.59;99676.16;4983263;28;20285;-82
2021/06/10 06:54:07;;;;;;;3.33;2.95;;;;;;;24.23;38.87;99689.22;4985572;28;20318;-92
2021/06/10 06:56:34;;;;;;;3.55;3.25;;;;;;;23.90;38.73;99686.59;5000472;28;20222;-90
2021/06/10 06:59:01;;;;;;;5.30;3.40;;;;;;;24.02;40.20;99683.38;4999136;28;20318;-91
2021/06/10 07:01:27;;;;;;;4.35;3.85;;;;;;;24.00;40.46;99686.41;5015536;28;20280;-85
2021/06/10 07:03:54;;;;;;;3.78;3.47;;;;;;;24.04;40.23;99692.06;5033412;28;20240;-92
2021/06/10 07:06:21;;;;;;;4.28;3.97;;;;;;;24.25;40.98;99701.50;5018086;28;20537;-85
2021/06/10 07:08:48;;;;;;;6.57;4.50;;;;;;;24.21;41.87;99688.72;5036277;28;20290;-87
2021/06/10 07:11:29;;;;;;;6.43;4.20;;;;;;;24.56;41.92;99688.72;4995447;28;20570;-89
2021/06/10 07:13:56;;;;;;;4.40;4.00;;;;;;;24.68;40.07;99685.44;4999081;28;20231;-88
2021/06/10 07:16:23;;;;;;;4.75;4.35;;;;;;;24.73;41.11;99685.28;4998622;28;20242;-90
2021/06/10 07:18:49;;;;;;;5.10;4.60;;;;;;;24.81;42.10;99684.56;4998699;28;20223;-85
2021/06/10 07:21:16;;;;;;;4.82;4.43;;;;;;;24.64;41.55;99689.88;4999237;28;20289;-86
2021/06/10 07:23:43;;;;;;;5.35;4.22;;;;;;;24.65;41.43;99688.78;4982634;28;20234;-85
2021/06/10 07:26:09;;;;;;;9.10;4.60;;;;;;;24.77;40.59;99688.22;5015545;28;20258;-92
2021/06/10 07:28:36;;;;;;;4.90;4.50;;;;;;;24.78;40.80;99687.91;5008425;28;20279;-79
2021/06/10 07:31:03;;;;;;;5.97;4.35;;;;;;;24.59;40.98;99697.44;5035389;28;20228;-88
2021/06/10 07:33:30;;;;;;;4.32;3.92;;;;;;;24.76;40.49;99683.88;5018113;28;20583;-89
2021/06/10 07:35:57;;;;;;;4.45;4.05;;;;;;;24.89;40.62;99688.50;5002152;28;20274;-86
2021/06/10 07:38:23;;;;;;;5.47;4.95;;;;;;;24.78;40.77;99674.19;5035417;28;20234;-87
2021/06/10 07:40:50;;;;;;;4.35;3.97;;;;;;;24.96;40.16;99688.88;5018799;28;20529;-85
2021/06/10 07:43:17;;;;;;;6.25;4.40;;;;;;;24.86;39.60;99681.72;5018057;28;20270;-89
2021/06/10 07:45:44;;;;;;;4.22;3.80;;;;;;;25.03;39.72;99696.63;5001860;28;20249;-90
2021/06/10 07:48:10;;;;;;;4.65;3.72;;;;;;;25.18;39.83;99677.88;5034136;28;20232;-92
2021/06/10 07:50:37;;;;;;;5.95;4.40;;;;;;;25.08;40.05;99678.13;5016940;28;20231;-89
2021/06/10 07:53:04;;;;;;;4.88;3.83;;;;;;;25.26;40.12;99693.56;5001169;28;20254;-83
2021/06/10 07:55:31;;;;;;;4.60;4.20;;;;;;;25.26;39.02;99679.84;5001249;28;20292;-81
2021/06/10 07:58:01;;;;;;;4.47;4.18;;;;;;;25.37;39.32;99692.16;5017581;28;20285;-81
2021/06/10 08:00:28;;;;;;;4.85;4.35;;;;;;;25.30;39.54;99697.28;5001249;28;20246;-92
2021/06/10 08:02:58;;;;;;;5.35;3.90;;;;;;;25.41;38.44;99684.91;5005471;28;20246;-82
2021/06/10 08:05:25;;;;;;;5.15;4.60;;;;;;;25.57;38.95;99682.56;4997506;28;20576;-90
2021/06/10 08:07:54;;;;;;;4.55;3.97;;;;;;;25.64;37.90;99691.16;4997824;28;20246;-88
2021/06/10 08:10:22;;;;;;;3.60;3.30;;;;;;;25.72;37.02;99692.31;5014720;28;20308;-90
2021/06/10 08:12:49;;;;;;;4.25;3.72;;;;;;;25.81;36.70;99687.66;4997934;28;20252;-83
2021/06/10 08:15:17;;;;;;;6.00;3.83;;;;;;;25.91;37.11;99689.31;4998164;28;20308;-83
2021/06/10 08:17:43;;;;;;;3.95;3.63;;;;;;;25.86;37.34;99690.25;4981768;28;20241;-85
2021/06/10 08:20:12;;;;;;;4.20;3.55;;;;;;;25.74;36.34;99679.91;4997464;28;20714;-92
2021/06/10 08:22:40;;;;;;;3.90;3.60;;;;;;;26.46;36.54;99689.56;4997790;28;20264;-92
2021/06/10 08:25:07;;;;;;;4.55;3.67;;;;;;;26.75;35.04;99689.72;4997111;28;20241;-89
2021/06/10 08:27:35;;;;;;;3.60;3.33;;;;;;;26.72;34.33;99701.38;4998194;28;20230;-81
2021/06/10 08:30:06;;;;;;;3.97;3.60;;;;;;;26.35;35.33;99691.84;4981493;28;20238;-83
2021/06/10 08:32:33;;;;;;;4.10;3.60;;;;;;;26.26;35.26;99680.03;4981840;28;20222;-82
2021/06/10 08:34:59;;;;;;;3.95;3.58;;;;;;;26.74;35.21;99688.09;4997616;28;20312;-83
2021/06/10 08:37:26;;;;;;;3.47;3.28;;;;;;;26.63;33.72;99684.91;4997965;28;20727;-90
2021/06/10 08:39:53;;;;;;;3.85;3.15;;;;;;;27.11;33.16;99689.34;4981784;28;20321;-85
2021/06/10 08:42:19;;;;;;;3.50;3.20;;;;;;;26.95;32.61;99682.78;5014312;28;20237;-87
2021/06/10 08:44:47;;;;;;;4.15;3.47;;;;;;;26.99;33.37;99695.53;5014971;28;20226;-89
2021/06/10 08:47:14;;;;;;;3.88;3.30;;;;;;;26.67;33.29;99690.53;5012427;28;20287;-88
2021/06/10 08:49:45;;;;;;;3.90;3.60;;;;;;;26.66;33.45;99681.47;4978488;28;20514;-85
2021/06/10 08:52:12;;;;;;;5.07;3.40;;;;;;;26.79;33.60;99701.66;4997661;28;20230;-91
2021/06/10 08:54:39;;;;;;;3.80;3.50;;;;;;;26.45;33.86;99691.53;4997265;28;20252;-87
2021/06/10 08:57:09;;;;;;;3.97;3.53;;;;;;;26.26;33.36;99689.09;4997919;28;20233;-92
2021/06/10 08:59:36;;;;;;;4.28;3.40;;;;;;;26.04;33.60;99693.84;5015051;28;20237;-92
2021/06/10 09:02:07;;;;;;;3.50;3.20;;;;;;;26.49;32.14;99677.94;5001849;28;20642;-85
2021/06/10 09:04:34;;;;;;;3.05;2.75;;;;;;;26.90;31.96;99691.19;5033531;28;20224;-90
2021/06/10 09:07:03;;;;;;;2.97;2.78;;;;;;;27.23;31.58;99684.00;5034323;28;20233;-89
2021/06/10 09:09:36;;;;;;;3.83;3.20;;;;;;;27.32;30.87;99687.53;5017175;28;20526;-92
2021/06/10 09:12:08;;;;;;;3.90;3.50;;;;;;;27.47;31.40;99689.75;5016867;28;20636;-94
2021/06/10 09:15:01;;;;;;;3.90;3.03;;;;;;;27.25;32.66;99689.97;5037497;28;20222;-88
2021/06/10 09:17:33;;;;;;;4.95;3.00;;;;;;;26.55;31.90;99685.69;5021112;28;20232;-84
2021/06/10 09:20:00;;;;;;;3.40;3.20;;;;;;;26.65;32.37;99690.03;5020837;28;20567;-89
2021/06/10 09:22:39;;;;;;;3.03;2.75;;;;;;;27.28;32.37;99683.81;5037729;28;20286;-90
2021/06/10 09:25:11;;;;;;;3.33;3.03;;;;;;;26.97;32.24;99683.28;5020352;28;20630;-86
2021/06/10 09:27:58;;;;;;;3.90;3.15;;;;;;;26.69;31.42;99691.81;5020927;28;20229;-91
2021/06/10 09:30:32;;;;;;;3.53;2.63;;;;;;;26.87;31.04;99691.84;5036489;28;20976;-91
2021/06/10 09:33:02;;;;;;;5.90;2.67;;;;;;;27.02;31.07;99685.81;5036725;28;20233;-86
2021/06/10 09:35:35;;;;;;;3.65;2.90;;;;;;;27.25;30.56;99694.69;5020125;28;20288;-87
2021/06/10 09:38:08;;;;;;;2.70;2.50;;;;;;;27.35;30.08;99688.78;5037610;28;20236;-93
2021/06/10 09:40:35;;;;;;;6.18;2.90;;;;;;;27.61;29.99;99688.75;5033370;28;20291;-78
2021/06/10 09:43:04;;;;;;;2.97;2.67;;;;;;;27.47;30.25;99689.75;5000800;28;20258;-83
2021/06/10 09:45:31;;;;;;;3.67;2.83;;;;;;;27.25;31.17;99694.69;4984282;28;20263;-91
2021/06/10 09:48:00;;;;;;;5.13;2.47;;;;;;;27.10;29.95;99693.25;5000841;28;20230;-87
2021/06/10 09:50:30;;;;;;;4.25;2.30;;;;;;;27.06;30.10;99701.31;5000488;28;20226;-82
2021/06/10 09:53:05;;;;;;;3.97;2.25;;;;;;;27.80;28.69;99694.63;5017133;28;20261;-86
2021/06/10 09:56:00;;;;;;;3.28;2.20;;;;;;;27.75;29.32;99695.63;5000670;28;20292;-87
2021/06/10 09:58:43;;;;;;;2.90;2.60;;;;;;;27.80;29.32;99692.69;5004410;28;20240;-86
2021/06/10 10:01:16;;;;;;;3.70;2.38;;;;;;;27.79;28.85;99699.34;5017727;28;20291;-83
2021/06/10 10:03:46;;;;;;;2.50;2.30;;;;;;;27.88;28.88;99680.81;5017910;28;20225;-81
2021/06/10 10:06:20;;;;;;;3.58;2.17;;;;;;;27.92;28.56;99684.50;5020032;28;20236;-84
2021/06/10 10:08:52;;;;;;;2.85;2.03;;;;;;;27.95;28.42;99683.03;5019622;28;20220;-84
2021/06/10 10:11:21;;;;;;;3.20;2.28;;;;;;;27.40;28.52;99692.19;5019350;28;20292;-86
2021/06/10 10:13:50;;;;;;;4.05;3.08;;;;;;;27.25;29.39;99680.94;5019581;28;20241;-81
2021/06/10 10:16:29;;;;;;;6.55;2.60;;;;;;;27.38;29.30;99666.97;5002837;28;20283;-84
2021/06/10 10:18:56;;;;;;;2.53;2.20;;;;;;;27.88;28.80;99669.00;5019538;28;20280;-84
2021/06/10 10:21:27;;;;;;;3.45;2.58;;;;;;;28.15;28.54;99660.25;5035883;28;20540;-84
2021/06/10 10:24:00;;;;;;;2.42;2.20;;;;;;;27.68;29.35;99670.56;5035562;28;20232;-83
2021/06/10 10:26:29;;;;;;;3.03;2.20;;;;;;;27.47;30.20;99677.94;5018230;28;20230;-86
2021/06/10 10:28:56;;;;;;;3.33;2.38;;;;;;;27.20;30.67;99678.34;5003130;28;20229;-82
2021/06/10 10:31:25;;;;;;;3.00;2.47;;;;;;;27.27;30.33;99673.94;5019125;28;20598;-84
2021/06/10 10:33:53;;;;;;;2.38;2.28;;;;;;;27.47;30.20;99650.41;5035313;28;20241;-84
2021/06/10 10:36:28;;;;;;;2.53;2.33;;;;;;;27.89;29.47;99654.91;5018687;28;20230;-82
2021/06/10 10:38:57;;;;;;;3.90;2.30;;;;;;;27.86;28.97;99668.50;5035801;28;20532;-82
2021/06/10 10:41:24;;;;;;;2.38;2.10;;;;;;;27.67;28.07;99660.69;5002589;28;20279;-83
2021/06/10 10:44:25;;;;;;;2.58;2.10;;;;;;;28.13;28.24;99657.03;5019565;28;20225;-83
2021/06/10 10:47:10;;;;;;;2.38;2.25;;;;;;;28.12;27.60;99660.94;5017990;28;20229;-84
2021/06/10 10:49:46;;;;;;;2.85;1.80;;;;;;;28.35;27.77;99640.19;5035564;28;20233;-84
2021/06/10 10:52:21;;;;;;;2.33;2.10;;;;;;;28.26;27.76;99647.72;5034700;28;20233;-82
2021/06/10 10:54:51;;;;;;;3.65;2.05;;;;;;;27.85;29.03;99655.91;5018878;28;20226;-81
2021/06/10 10:57:30;;;;;;;3.05;2.30;;;;;;;27.89;28.96;99651.34;5035927;28;20348;-79
2021/06/10 10:59:58;;;;;;;3.50;2.30;;;;;;;27.70;28.69;99645.47;5018618;28;20248;-84
2021/06/10 11:02:27;;;;;;;2.80;2.47;;;;;;;27.90;29.22;99648.25;5011298;28;20306;-83
2021/06/10 11:05:05;;;;;;;2.75;1.70;;;;;;;27.45;28.44;99636.97;4983334;28;20230;-82
2021/06/10 11:07:35;;;;;;;3.22;1.70;;;;;;;26.88;27.86;99639.28;4999104;28;20233;-85
2021/06/10 11:10:04;;;;;;;3.03;1.95;;;;;;;26.57;28.32;99627.66;5015801;28;20237;-85
2021/06/10 11:12:40;;;;;;;1.85;1.42;;;;;;;27.06;27.86;99634.56;4966694;28;20714;-85
2021/06/10 11:15:34;;;;;;;2.83;1.73;;;;;;;27.57;28.23;99622.56;5016070;28;20645;-84
2021/06/10 11:18:07;;;;;;;4.03;2.00;;;;;;;28.10;28.69;99630.13;5016065;28;20661;-84
2021/06/10 11:20:36;;;;;;;3.03;1.80;;;;;;;28.05;27.36;99627.56;4999535;28;20230;-85
2021/06/10 11:23:27;;;;;;;4.00;1.80;;;;;;;28.10;27.07;99615.53;4998839;28;20241;-83
2021/06/10 11:25:58;;;;;;;3.20;1.80;;;;;;;28.42;27.03;99603.78;4999444;28;20230;-85
2021/06/10 11:28:27;;;;;;;2.55;1.55;;;;;;;28.55;26.58;99610.19;4966194;28;20284;-84
2021/06/10 11:31:19;;;;;;;2.67;1.70;;;;;;;28.30;25.67;99599.06;4998725;28;20239;-80
2021/06/10 11:33:48;;;;;;;2.63;1.60;;;;;;;28.50;26.40;99602.94;4996492;28;20603;-81
2021/06/10 11:36:16;;;;;;;1.88;1.77;;;;;;;28.01;25.65;99602.66;4997885;28;20254;-84
2021/06/10 11:38:44;;;;;;;3.17;2.10;;;;;;;27.97;25.90;99587.94;5016007;28;20307;-81
2021/06/10 11:41:13;;;;;;;2.38;1.55;;;;;;;28.16;25.35;99589.44;4982254;28;20233;-83
2021/06/10 11:43:45;;;;;;;2.42;1.92;;;;;;;28.31;25.33;99600.66;4982243;28;20231;-82